Time;durP1;ratioP1;P1;durP2;ratioP2;P2;SDS_P1;SDS_P2;PMS_P1;PMS_P2;Temp;Humidity;BMP_temperature;BMP_pressure;BME280_temperature;BME280_humidity;BME280_pressure;Samples;Min_cycle;Max_cycle;Signal;HPM_P1;HPM_P2
2022/04/04 00:01:11;;;;;;;;;15.25;11.00;;;;;;;;5042153;28;51069;-56
2022/04/04 00:04:02;;;;;;;;;19.75;17.00;;;;;;;;5038207;28;51138;-53
2022/04/04 00:07:02;;;;;;;;;14.25;13.00;;;;;;;;5037093;28;51491;-54
2022/04/04 00:09:47;;;;;;;;;16.50;13.75;;;;;;;;5036680;28;51073;-54
2022/04/04 00:12:53;;;;;;;;;26.50;15.50;;;;;;;;5039386;28;51225;-55
2022/04/04 00:15:37;;;;;;;;;17.75;14.50;;;;;;;;5042379;28;51464;-55
2022/04/04 00:18:32;;;;;;;;;15.75;13.50;;;;;;;;5041101;28;51191;-53
2022/04/04 00:21:20;;;;;;;;;20.00;13.75;;;;;;;;5042705;28;51527;-51
2022/04/04 00:24:06;;;;;;;;;16.25;12.50;;;;;;;;5040304;28;51228;-56
2022/04/04 00:26:50;;;;;;;;;22.25;13.25;;;;;;;;5039629;28;51115;-52
2022/04/04 00:29:35;;;;;;;;;19.25;12.75;;;;;;;;5039354;28;51110;-55
2022/04/04 00:32:20;;;;;;;;;17.75;12.00;;;;;;;;5041812;28;51279;-54
2022/04/04 00:35:04;;;;;;;;;19.50;13.00;;;;;;;;5066662;27;51116;-53
2022/04/04 00:37:49;;;;;;;;;15.75;12.75;;;;;;;;5037481;28;51088;-53
2022/04/04 00:40:34;;;;;;;;;15.50;11.00;;;;;;;;5041991;28;51046;-56
2022/04/04 00:43:19;;;;;;;;;21.25;15.50;;;;;;;;5039880;28;51170;-56
2022/04/04 00:46:09;;;;;;;;;18.75;11.50;;;;;;;;5041731;28;51246;-53
2022/04/04 00:48:53;;;;;;;;;19.00;8.50;;;;;;;;5042362;28;51118;-54
2022/04/04 00:51:49;;;;;;;;;19.50;11.50;;;;;;;;5040225;28;51179;-50
2022/04/04 00:54:37;;;;;;;;;26.00;13.75;;;;;;;;5041969;28;51149;-52
2022/04/04 00:57:22;;;;;;;;;23.25;11.75;;;;;;;;5041834;28;51421;-56
2022/04/04 01:00:11;;;;;;;;;18.75;12.00;;;;;;;;5039995;28;51114;-53
2022/04/04 01:02:57;;;;;;;;;20.25;13.00;;;;;;;;5049143;28;51562;-55
2022/04/04 01:05:44;;;;;;;;;20.00;14.25;;;;;;;;5041416;28;51387;-51
2022/04/04 01:08:33;;;;;;;;;20.25;14.50;;;;;;;;5041750;28;51124;-54
2022/04/04 01:11:19;;;;;;;;;17.75;12.00;;;;;;;;5041542;28;51451;-56
2022/04/04 01:14:07;;;;;;;;;16.00;11.50;;;;;;;;5041440;28;51148;-57
2022/04/04 01:17:13;;;;;;;;;15.50;9.50;;;;;;;;5041800;28;51103;-57
2022/04/04 01:20:06;;;;;;;;;20.75;11.00;;;;;;;;5041201;28;51141;-56
2022/04/04 01:22:51;;;;;;;;;17.75;12.50;;;;;;;;5040956;28;51159;-56
2022/04/04 01:25:36;;;;;;;;;20.75;14.50;;;;;;;;5042704;28;51104;-55
2022/04/04 01:28:21;;;;;;;;;10.75;10.75;;;;;;;;5041921;28;51235;-52
2022/04/04 01:31:07;;;;;;;;;10.50;7.00;;;;;;;;5041703;28;51413;-53
2022/04/04 01:33:52;;;;;;;;;15.75;12.25;;;;;;;;5040476;28;51108;-54
2022/04/04 01:36:45;;;;;;;;;19.00;13.50;;;;;;;;5048562;28;51111;-51
2022/04/04 01:39:50;;;;;;;;;19.00;10.00;;;;;;;;5039303;28;51143;-54
2022/04/04 01:42:37;;;;;;;;;14.75;11.00;;;;;;;;5041579;28;51128;-53
2022/04/04 01:46:23;;;;;;;;;16.50;14.00;;;;;;;;5041400;28;51168;-55
2022/04/04 01:48:26;;;;;;;;;18.75;14.25;;;;;;;;5038502;28;51577;-53
2022/04/04 01:51:13;;;;;;;;;15.00;12.00;;;;;;;;5040382;28;51104;-54
2022/04/04 01:54:06;;;;;;;;;23.00;13.25;;;;;;;;5041063;28;51162;-56
2022/04/04 01:56:52;;;;;;;;;19.50;12.25;;;;;;;;5040597;28;51424;-56
2022/04/04 01:59:37;;;;;;;;;17.50;13.75;;;;;;;;5041087;28;51147;-53
2022/04/04 02:02:32;;;;;;;;;17.00;13.25;;;;;;;;5039416;28;51103;-51
2022/04/04 02:05:18;;;;;;;;;29.75;12.75;;;;;;;;5040422;28;52756;-52
2022/04/04 02:08:06;;;;;;;;;20.25;13.25;;;;;;;;5041255;28;51036;-57
2022/04/04 02:10:50;;;;;;;;;20.00;14.00;;;;;;;;5040138;28;51167;-53
2022/04/04 02:13:36;;;;;;;;;16.25;12.75;;;;;;;;5040484;28;51157;-54
2022/04/04 02:16:21;;;;;;;;;16.50;12.00;;;;;;;;5040120;28;51131;-54
2022/04/04 02:19:08;;;;;;;;;22.50;11.50;;;;;;;;5052438;28;51084;-53
2022/04/04 02:21:53;;;;;;;;;19.25;10.00;;;;;;;;5037103;28;51134;-55
2022/04/04 02:24:41;;;;;;;;;19.25;13.50;;;;;;;;5041339;28;51104;-50
2022/04/04 02:27:35;;;;;;;;;12.75;10.25;;;;;;;;5039597;28;51090;-54
2022/04/04 02:30:19;;;;;;;;;15.50;10.25;;;;;;;;5039687;28;51158;-54
2022/04/04 02:33:04;;;;;;;;;17.25;11.25;;;;;;;;5037689;28;51107;-57
2022/04/04 02:35:51;;;;;;;;;21.00;12.00;;;;;;;;5039808;28;51148;-53
2022/04/04 02:38:37;;;;;;;;;20.75;13.00;;;;;;;;5039675;28;51513;-56
2022/04/04 02:41:22;;;;;;;;;15.50;11.75;;;;;;;;5040133;28;51194;-54
2022/04/04 02:44:06;;;;;;;;;19.25;14.75;;;;;;;;5039884;28;51195;-55
2022/04/04 02:47:14;;;;;;;;;18.75;12.75;;;;;;;;5039751;28;51167;-54
2022/04/04 02:50:23;;;;;;;;;17.00;12.25;;;;;;;;5040773;28;51207;-54
2022/04/04 02:53:29;;;;;;;;;16.75;8.50;;;;;;;;5039514;28;51166;-56
2022/04/04 02:56:32;;;;;;;;;18.50;10.00;;;;;;;;5055025;28;51166;-52
2022/04/04 02:59:26;;;;;;;;;19.00;13.50;;;;;;;;5039374;28;51555;-57
2022/04/04 03:02:12;;;;;;;;;17.75;14.00;;;;;;;;5038335;28;51085;-51
2022/04/04 03:05:04;;;;;;;;;20.25;14.25;;;;;;;;5039909;28;51372;-55
2022/04/04 03:07:48;;;;;;;;;19.50;13.00;;;;;;;;5038948;28;51210;-55
2022/04/04 03:10:35;;;;;;;;;27.50;13.00;;;;;;;;5039747;28;51115;-54
2022/04/04 03:13:21;;;;;;;;;21.75;13.25;;;;;;;;5038577;28;51347;-55
2022/04/04 03:16:11;;;;;;;;;19.50;14.50;;;;;;;;5039210;28;51594;-55
2022/04/04 03:18:59;;;;;;;;;16.00;11.25;;;;;;;;5037469;28;51115;-53
2022/04/04 03:21:44;;;;;;;;;17.25;13.50;;;;;;;;5022161;28;51182;-56
2022/04/04 03:24:29;;;;;;;;;16.75;13.00;;;;;;;;5039297;28;51128;-54
2022/04/04 03:27:14;;;;;;;;;22.00;11.75;;;;;;;;5039149;28;51033;-53
2022/04/04 03:29:58;;;;;;;;;8.50;8.50;;;;;;;;5034181;28;51050;-56
2022/04/04 03:32:43;;;;;;;;;15.25;13.25;;;;;;;;5039033;28;51171;-54
2022/04/04 03:35:28;;;;;;;;;16.50;13.25;;;;;;;;5020383;28;51326;-55
2022/04/04 03:38:25;;;;;;;;;17.25;11.50;;;;;;;;5039163;28;51115;-52
2022/04/04 03:41:11;;;;;;;;;15.50;12.25;;;;;;;;5037759;28;51221;-56
2022/04/04 03:44:01;;;;;;;;;14.75;11.75;;;;;;;;5035870;28;51433;-54
2022/04/04 03:46:55;;;;;;;;;16.00;11.00;;;;;;;;5039318;28;51121;-54
2022/04/04 03:49:40;;;;;;;;;13.25;11.75;;;;;;;;5043303;28;51533;-53
2022/04/04 03:52:28;;;;;;;;;20.25;10.50;;;;;;;;5041950;28;51146;-53
2022/04/04 03:55:19;;;;;;;;;19.50;12.00;;;;;;;;5058250;28;51059;-56
2022/04/04 03:58:08;;;;;;;;;17.00;13.25;;;;;;;;5041536;28;51124;-56
2022/04/04 04:00:53;;;;;;;;;20.75;15.75;;;;;;;;5043554;28;51452;-55
2022/04/04 04:03:39;;;;;;;;;17.00;12.75;;;;;;;;5043095;28;51562;-56
2022/04/04 04:06:24;;;;;;;;;18.00;13.50;;;;;;;;5046874;28;51940;-55
2022/04/04 04:09:11;;;;;;;;;17.50;12.00;;;;;;;;5042836;28;51162;-55
2022/04/04 04:12:00;;;;;;;;;16.25;11.50;;;;;;;;5029302;28;51172;-55
2022/04/04 04:14:45;;;;;;;;;14.50;12.00;;;;;;;;5041628;28;51360;-55
2022/04/04 04:17:31;;;;;;;;;16.25;10.25;;;;;;;;5041553;28;53096;-54
2022/04/04 04:20:19;;;;;;;;;16.75;12.25;;;;;;;;5043010;28;51494;-56
2022/04/04 04:23:27;;;;;;;;;18.25;12.25;;;;;;;;5042287;28;51134;-55
2022/04/04 04:26:13;;;;;;;;;16.25;13.00;;;;;;;;5042349;28;51168;-54
2022/04/04 04:28:59;;;;;;;;;13.75;11.50;;;;;;;;5044286;28;51475;-55
2022/04/04 04:31:47;;;;;;;;;19.00;13.00;;;;;;;;5040454;28;51307;-55
2022/04/04 04:34:34;;;;;;;;;21.00;11.75;;;;;;;;5041426;28;51451;-55
2022/04/04 04:37:34;;;;;;;;;22.75;15.75;;;;;;;;5044522;28;51196;-53
2022/04/04 04:40:19;;;;;;;;;24.00;17.25;;;;;;;;5054348;28;51189;-55
2022/04/04 04:43:06;;;;;;;;;20.25;14.25;;;;;;;;5058508;28;51261;-56
2022/04/04 04:45:52;;;;;;;;;22.25;16.25;;;;;;;;5041806;28;51041;-58
2022/04/04 04:48:40;;;;;;;;;23.50;18.00;;;;;;;;5039966;28;51164;-53
2022/04/04 04:51:43;;;;;;;;;30.50;20.50;;;;;;;;5064331;27;51066;-52
2022/04/04 04:54:27;;;;;;;;;20.00;17.50;;;;;;;;5042361;28;51179;-54
2022/04/04 04:57:13;;;;;;;;;28.00;17.50;;;;;;;;5041257;28;51188;-55
2022/04/04 05:00:02;;;;;;;;;27.00;16.00;;;;;;;;5036615;28;51429;-53
2022/04/04 05:02:47;;;;;;;;;18.00;13.75;;;;;;;;5037388;28;51014;-55
2022/04/04 05:05:32;;;;;;;;;30.50;18.25;;;;;;;;5048099;28;51203;-56
2022/04/04 05:08:16;;;;;;;;;23.50;20.00;;;;;;;;5041752;28;51137;-53
2022/04/04 05:11:02;;;;;;;;;22.00;15.50;;;;;;;;5041835;28;51159;-54
2022/04/04 05:13:50;;;;;;;;;27.00;19.00;;;;;;;;5041656;28;51027;-53
2022/04/04 05:16:36;;;;;;;;;20.50;16.25;;;;;;;;5041938;28;51101;-52
2022/04/04 05:19:30;;;;;;;;;26.50;18.75;;;;;;;;5041084;28;51103;-54
2022/04/04 05:22:16;;;;;;;;;22.25;16.75;;;;;;;;5041363;28;51134;-55
2022/04/04 05:25:00;;;;;;;;;23.25;18.25;;;;;;;;5043897;28;50997;-54
2022/04/04 05:27:53;;;;;;;;;19.50;15.50;;;;;;;;5041824;28;51165;-53
2022/04/04 05:30:45;;;;;;;;;27.50;20.75;;;;;;;;5040758;28;51411;-53
2022/04/04 05:33:30;;;;;;;;;24.25;17.00;;;;;;;;5027667;28;51249;-53
2022/04/04 05:36:15;;;;;;;;;28.50;18.00;;;;;;;;5041378;28;51090;-54
2022/04/04 05:39:01;;;;;;;;;25.00;20.75;;;;;;;;5041051;28;51085;-55
2022/04/04 05:41:45;;;;;;;;;27.25;18.25;;;;;;;;5041603;28;51293;-57
2022/04/04 05:44:50;;;;;;;;;20.00;15.50;;;;;;;;5041239;28;51238;-52
2022/04/04 05:47:39;;;;;;;;;22.00;18.25;;;;;;;;5039160;28;51187;-53
2022/04/04 05:50:25;;;;;;;;;33.75;25.25;;;;;;;;5036922;28;51259;-56
2022/04/04 05:53:10;;;;;;;;;28.75;25.00;;;;;;;;5061506;28;51091;-56
2022/04/04 05:55:58;;;;;;;;;28.75;21.00;;;;;;;;5049226;28;51045;-53
2022/04/04 05:58:43;;;;;;;;;22.25;19.00;;;;;;;;5036241;28;51178;-54
2022/04/04 06:01:28;;;;;;;;;29.25;19.00;;;;;;;;5041390;28;51168;-54
2022/04/04 06:04:12;;;;;;;;;29.75;22.00;;;;;;;;5040653;28;51185;-53
2022/04/04 06:06:58;;;;;;;;;28.25;19.50;;;;;;;;5040462;28;51048;-53
2022/04/04 06:09:45;;;;;;;;;28.25;19.50;;;;;;;;5032276;28;51381;-54
2022/04/04 06:12:29;;;;;;;;;25.00;15.50;;;;;;;;5039053;28;51122;-49
2022/04/04 06:15:15;;;;;;;;;25.25;14.25;;;;;;;;5038369;28;51275;-55
2022/04/04 06:18:00;;;;;;;;;26.75;20.00;;;;;;;;5040720;28;51138;-53
2022/04/04 06:20:45;;;;;;;;;28.50;16.75;;;;;;;;5043704;28;51468;-53
2022/04/04 06:23:40;;;;;;;;;25.50;16.75;;;;;;;;5036842;28;51004;-56
2022/04/04 06:26:24;;;;;;;;;30.75;21.75;;;;;;;;5040437;28;51071;-53
2022/04/04 06:29:10;;;;;;;;;24.25;18.25;;;;;;;;5039664;28;51147;-53
2022/04/04 06:31:55;;;;;;;;;28.75;22.00;;;;;;;;5040214;28;51169;-52
2022/04/04 06:34:57;;;;;;;;;26.75;18.50;;;;;;;;5038231;28;51573;-52
2022/04/04 06:37:54;;;;;;;;;25.75;22.00;;;;;;;;5035258;28;51201;-52
2022/04/04 06:40:38;;;;;;;;;27.25;23.50;;;;;;;;5028920;28;51191;-56
2022/04/04 06:43:22;;;;;;;;;28.25;18.25;;;;;;;;5019838;28;51078;-53
2022/04/04 06:46:07;;;;;;;;;26.25;18.50;;;;;;;;5018205;28;51145;-52
2022/04/04 06:48:53;;;;;;;;;31.25;21.25;;;;;;;;5018938;28;51202;-49
2022/04/04 06:51:39;;;;;;;;;31.00;19.50;;;;;;;;5019355;28;51146;-52
2022/04/04 06:54:27;;;;;;;;;25.50;19.25;;;;;;;;5019232;28;51234;-55
2022/04/04 06:57:15;;;;;;;;;16.75;14.00;;;;;;;;5018499;28;51099;-53
2022/04/04 07:00:02;;;;;;;;;23.50;18.25;;;;;;;;5018759;28;51129;-57
2022/04/04 07:02:53;;;;;;;;;26.50;18.50;;;;;;;;5019492;28;51122;-51
2022/04/04 07:06:08;;;;;;;;;23.50;16.25;;;;;;;;5019599;28;51067;-53
2022/04/04 07:08:52;;;;;;;;;19.75;16.75;;;;;;;;5018990;28;51168;-56
2022/04/04 07:11:40;;;;;;;;;26.00;16.75;;;;;;;;5019311;28;52264;-51
2022/04/04 07:14:27;;;;;;;;;25.00;20.50;;;;;;;;5014951;28;51024;-54
2022/04/04 07:17:33;;;;;;;;;27.50;22.25;;;;;;;;5016987;28;51522;-53
2022/04/04 07:20:22;;;;;;;;;24.00;16.00;;;;;;;;5018792;28;51048;-49
2022/04/04 07:23:32;;;;;;;;;28.50;17.00;;;;;;;;5019338;28;51145;-55
2022/04/04 07:26:21;;;;;;;;;24.75;16.50;;;;;;;;5010380;28;51073;-50
2022/04/04 07:29:05;;;;;;;;;21.25;13.75;;;;;;;;5016467;28;51214;-55
2022/04/04 07:32:10;;;;;;;;;17.00;13.25;;;;;;;;5018375;28;51218;-56
2022/04/04 07:35:03;;;;;;;;;17.75;15.00;;;;;;;;5018153;28;51094;-50
2022/04/04 07:37:48;;;;;;;;;19.75;16.00;;;;;;;;5044624;28;51129;-54
2022/04/04 07:40:33;;;;;;;;;19.00;14.00;;;;;;;;5050326;28;53170;-56
2022/04/04 07:43:23;;;;;;;;;17.25;14.00;;;;;;;;5074940;28;51463;-53
2022/04/04 07:46:13;;;;;;;;;18.00;14.00;;;;;;;;5079387;28;51043;-55
2022/04/04 07:49:19;;;;;;;;;16.25;13.50;;;;;;;;5079046;28;51379;-51
2022/04/04 07:52:09;;;;;;;;;22.75;13.75;;;;;;;;5071044;28;51559;-53
2022/04/04 07:54:57;;;;;;;;;26.25;15.00;;;;;;;;5079325;28;51122;-52
2022/04/04 07:57:41;;;;;;;;;20.50;11.50;;;;;;;;5078846;28;51192;-49
2022/04/04 08:00:28;;;;;;;;;18.00;12.50;;;;;;;;5076812;28;51114;-54
2022/04/04 08:03:17;;;;;;;;;20.00;14.25;;;;;;;;5045965;28;51068;-56
2022/04/04 08:06:02;;;;;;;;;18.25;11.50;;;;;;;;5072294;28;51218;-51
2022/04/04 08:08:57;;;;;;;;;14.00;11.00;;;;;;;;5078453;28;51004;-51
2022/04/04 08:11:43;;;;;;;;;15.25;13.25;;;;;;;;5074552;28;51132;-54
2022/04/04 08:14:27;;;;;;;;;23.50;14.75;;;;;;;;5052762;28;51146;-48
2022/04/04 08:17:11;;;;;;;;;15.75;10.75;;;;;;;;5067908;28;51096;-56
2022/04/04 08:19:57;;;;;;;;;24.50;13.50;;;;;;;;5078673;28;51054;-52
2022/04/04 08:22:49;;;;;;;;;24.25;15.75;;;;;;;;5078913;28;51103;-55
2022/04/04 08:25:37;;;;;;;;;25.00;19.50;;;;;;;;5050315;28;51203;-55
2022/04/04 08:28:28;;;;;;;;;20.50;15.25;;;;;;;;5057106;28;51143;-54
2022/04/04 08:31:24;;;;;;;;;26.00;18.25;;;;;;;;5041465;28;51170;-54
2022/04/04 08:34:10;;;;;;;;;18.75;15.75;;;;;;;;5045187;28;51538;-54
2022/04/04 08:36:55;;;;;;;;;20.50;15.75;;;;;;;;5051748;27;51100;-50
2022/04/04 08:39:47;;;;;;;;;18.25;13.50;;;;;;;;5042181;28;51446;-56
2022/04/04 08:42:32;;;;;;;;;13.75;12.00;;;;;;;;5042164;28;51300;-56
2022/04/04 08:45:17;;;;;;;;;16.50;12.25;;;;;;;;5058594;27;51534;-53
2022/04/04 08:48:05;;;;;;;;;19.75;13.00;;;;;;;;5082597;27;51258;-52
2022/04/04 08:50:50;;;;;;;;;18.50;11.25;;;;;;;;5082653;27;51026;-50
2022/04/04 08:53:36;;;;;;;;;19.75;12.50;;;;;;;;5048047;27;51091;-49
2022/04/04 08:56:26;;;;;;;;;16.50;12.50;;;;;;;;5067709;27;51119;-52
2022/04/04 08:59:30;;;;;;;;;14.75;12.25;;;;;;;;5043117;28;51084;-54
2022/04/04 09:02:16;;;;;;;;;16.50;11.75;;;;;;;;5041716;28;51092;-49
2022/04/04 09:05:05;;;;;;;;;16.50;13.25;;;;;;;;5043334;28;51160;-54
2022/04/04 09:08:07;;;;;;;;;17.25;13.50;;;;;;;;5058022;27;51459;-53
2022/04/04 09:11:08;;;;;;;;;18.25;13.75;;;;;;;;5068711;27;51246;-55
2022/04/04 09:14:06;;;;;;;;;18.50;12.75;;;;;;;;5047384;28;51001;-51
2022/04/04 09:16:56;;;;;;;;;26.00;14.50;;;;;;;;5041853;28;51167;-54
2022/04/04 09:19:40;;;;;;;;;18.50;14.00;;;;;;;;5050891;27;51067;-48
2022/04/04 09:22:43;;;;;;;;;20.00;13.25;;;;;;;;5044408;28;51111;-56
2022/04/04 09:25:32;;;;;;;;;17.50;14.75;;;;;;;;5041531;28;51533;-53
2022/04/04 09:28:19;;;;;;;;;21.75;11.75;;;;;;;;5050070;27;51128;-57
2022/04/04 09:31:15;;;;;;;;;20.25;13.00;;;;;;;;5081458;27;51182;-51
2022/04/04 09:34:01;;;;;;;;;19.75;11.50;;;;;;;;5048673;27;51521;-55
2022/04/04 09:36:47;;;;;;;;;21.00;13.25;;;;;;;;5072802;27;51515;-49
2022/04/04 09:39:33;;;;;;;;;17.00;13.00;;;;;;;;5079616;27;51176;-46
2022/04/04 09:42:25;;;;;;;;;21.00;14.75;;;;;;;;5081613;27;51086;-52
2022/04/04 09:45:24;;;;;;;;;19.75;13.75;;;;;;;;5072657;27;51154;-54
2022/04/04 09:48:19;;;;;;;;;23.50;18.75;;;;;;;;5064062;27;51165;-54
2022/04/04 09:51:04;;;;;;;;;21.75;16.00;;;;;;;;5081546;27;51379;-52
2022/04/04 09:54:05;;;;;;;;;21.00;13.75;;;;;;;;5071911;27;51162;-51
2022/04/04 09:57:10;;;;;;;;;12.25;12.25;;;;;;;;5073660;27;51071;-56
2022/04/04 09:59:56;;;;;;;;;19.25;13.00;;;;;;;;5040926;28;51067;-53
2022/04/04 10:02:44;;;;;;;;;41.75;28.50;;;;;;;;5045288;27;51985;-58
2022/04/04 10:05:29;;;;;;;;;37.50;31.75;;;;;;;;5042036;28;51163;-54
2022/04/04 10:08:16;;;;;;;;;41.50;30.50;;;;;;;;5041107;28;51131;-54
2022/04/04 10:11:03;;;;;;;;;42.25;30.25;;;;;;;;5040049;28;50957;-50
2022/04/04 10:13:57;;;;;;;;;32.00;25.50;;;;;;;;5050547;27;51111;-54
2022/04/04 10:16:43;;;;;;;;;25.75;20.50;;;;;;;;5080958;27;51190;-52
2022/04/04 10:19:28;;;;;;;;;28.75;15.25;;;;;;;;5075549;27;51143;-53
2022/04/04 10:22:14;;;;;;;;;24.25;17.25;;;;;;;;5045878;28;51225;-47
2022/04/04 10:24:58;;;;;;;;;24.75;20.00;;;;;;;;5071021;27;51277;-54
2022/04/04 10:27:47;;;;;;;;;25.00;15.50;;;;;;;;5039987;28;51103;-54
2022/04/04 10:30:34;;;;;;;;;21.50;17.50;;;;;;;;5039675;28;51099;-53
2022/04/04 10:33:19;;;;;;;;;14.25;13.25;;;;;;;;5053099;27;51061;-53
2022/04/04 10:36:18;;;;;;;;;21.75;15.25;;;;;;;;5066997;27;51270;-53
2022/04/04 10:39:07;;;;;;;;;22.25;16.75;;;;;;;;5065684;27;51206;-50
2022/04/04 10:42:07;;;;;;;;;19.75;14.75;;;;;;;;5073595;27;51091;-53
2022/04/04 10:45:08;;;;;;;;;15.50;14.00;;;;;;;;5067260;27;51118;-55
2022/04/04 10:48:02;;;;;;;;;34.50;21.75;;;;;;;;5045798;28;51063;-53
2022/04/04 10:50:46;;;;;;;;;22.75;16.50;;;;;;;;5050204;28;51036;-53
2022/04/04 10:53:49;;;;;;;;;23.25;17.75;;;;;;;;5039540;28;51568;-55
2022/04/04 10:56:39;;;;;;;;;23.75;16.25;;;;;;;;5052796;27;51201;-54
2022/04/04 10:59:26;;;;;;;;;22.00;16.50;;;;;;;;5074765;27;52023;-54
2022/04/04 11:02:21;;;;;;;;;18.50;15.25;;;;;;;;5069882;27;51196;-55
2022/04/04 11:08:50;;;;;;;;;14.75;12.25;;;;;;;;5072139;27;51166;-56
2022/04/04 11:11:50;;;;;;;;;18.50;14.75;;;;;;;;5054197;27;51064;-53
2022/04/04 11:14:46;;;;;;;;;20.00;11.75;;;;;;;;5080230;27;51209;-52
2022/04/04 11:17:36;;;;;;;;;15.50;11.00;;;;;;;;5070834;27;51363;-54
2022/04/04 11:20:40;;;;;;;;;21.00;13.00;;;;;;;;5039223;28;51494;-52
2022/04/04 11:23:34;;;;;;;;;26.50;20.75;;;;;;;;5038661;28;51115;-56
2022/04/04 11:26:28;;;;;;;;;17.75;12.00;;;;;;;;5039765;28;51230;-56
2022/04/04 11:29:19;;;;;;;;;18.75;13.75;;;;;;;;5075530;27;51559;-54
2022/04/04 11:32:34;;;;;;;;;13.50;10.00;;;;;;;;5079616;27;51139;-49
2022/04/04 11:35:27;;;;;;;;;17.75;9.00;;;;;;;;5079930;27;51450;-49
2022/04/04 11:38:24;;;;;;;;;16.00;12.75;;;;;;;;5079199;27;51180;-54
2022/04/04 11:41:11;;;;;;;;;13.50;10.25;;;;;;;;5071024;27;51377;-52
2022/04/04 11:43:56;;;;;;;;;16.00;11.00;;;;;;;;5039458;28;51007;-54
2022/04/04 11:47:02;;;;;;;;;19.25;14.50;;;;;;;;5038277;28;51210;-48
2022/04/04 11:49:49;;;;;;;;;14.00;11.50;;;;;;;;5055051;28;51158;-53
2022/04/04 11:52:47;;;;;;;;;17.50;10.50;;;;;;;;5070089;28;51099;-54
2022/04/04 11:55:36;;;;;;;;;15.00;8.25;;;;;;;;5076478;28;51051;-52
2022/04/04 11:58:25;;;;;;;;;11.00;7.50;;;;;;;;5056240;28;51154;-55
2022/04/04 12:01:11;;;;;;;;;16.50;10.00;;;;;;;;5061524;28;51114;-55
2022/04/04 12:03:56;;;;;;;;;17.25;10.00;;;;;;;;5062777;28;51125;-54
2022/04/04 12:06:48;;;;;;;;;11.50;10.00;;;;;;;;5072545;28;51033;-52
2022/04/04 12:09:36;;;;;;;;;16.75;12.00;;;;;;;;5063457;28;51017;-51
2022/04/04 12:12:28;;;;;;;;;14.75;9.50;;;;;;;;5057046;28;51462;-53
2022/04/04 12:15:12;;;;;;;;;15.25;9.00;;;;;;;;5050949;28;51430;-52
2022/04/04 12:18:03;;;;;;;;;12.25;7.25;;;;;;;;5055842;27;51123;-50
2022/04/04 12:20:56;;;;;;;;;16.75;10.25;;;;;;;;5060097;27;51114;-52
2022/04/04 12:26:43;;;;;;;;;12.75;10.00;;;;;;;;5050124;27;51584;-51
2022/04/04 12:29:27;;;;;;;;;11.75;8.50;;;;;;;;5060443;27;51120;-52
2022/04/04 12:32:20;;;;;;;;;12.50;9.75;;;;;;;;5062829;27;51133;-53
2022/04/04 12:35:11;;;;;;;;;11.00;8.75;;;;;;;;5080429;27;51227;-51
2022/04/04 12:37:59;;;;;;;;;18.00;8.00;;;;;;;;5042649;28;51377;-49
2022/04/04 12:41:00;;;;;;;;;13.75;10.25;;;;;;;;5041876;28;51083;-47
2022/04/04 12:43:47;;;;;;;;;7.50;5.75;;;;;;;;5035067;28;51080;-50
2022/04/04 12:46:33;;;;;;;;;9.25;6.25;;;;;;;;5053630;27;51456;-53
2022/04/04 12:49:19;;;;;;;;;10.25;8.75;;;;;;;;5066964;27;51035;-53
2022/04/04 12:52:07;;;;;;;;;10.00;8.00;;;;;;;;5076056;27;51459;-53
2022/04/04 12:54:57;;;;;;;;;8.75;7.25;;;;;;;;5081594;27;51076;-49
2022/04/04 12:57:42;;;;;;;;;11.25;7.50;;;;;;;;5056333;27;51135;-56
2022/04/04 13:00:35;;;;;;;;;13.50;10.00;;;;;;;;5082025;27;51113;-49
2022/04/04 13:03:29;;;;;;;;;19.50;9.50;;;;;;;;5059143;27;51166;-55
2022/04/04 13:06:16;;;;;;;;;14.25;11.00;;;;;;;;5080552;27;51049;-53
2022/04/04 13:09:26;;;;;;;;;12.00;9.00;;;;;;;;5081931;27;51107;-53
2022/04/04 13:12:11;;;;;;;;;15.25;8.00;;;;;;;;5081509;27;51121;-55
2022/04/04 13:14:57;;;;;;;;;8.00;7.25;;;;;;;;5072920;27;51595;-53
2022/04/04 13:18:01;;;;;;;;;10.25;8.50;;;;;;;;5076240;27;51123;-54
2022/04/04 13:20:58;;;;;;;;;10.50;7.50;;;;;;;;5064348;27;51172;-51
2022/04/04 13:23:51;;;;;;;;;12.75;9.75;;;;;;;;5076361;27;51091;-55
2022/04/04 13:26:42;;;;;;;;;9.75;8.25;;;;;;;;5080613;27;51201;-53
2022/04/04 13:29:27;;;;;;;;;12.50;8.75;;;;;;;;5075285;27;51114;-53
2022/04/04 13:32:33;;;;;;;;;13.75;8.75;;;;;;;;5065801;27;51173;-54
2022/04/04 13:35:19;;;;;;;;;12.00;8.75;;;;;;;;5040912;28;51043;-54
2022/04/04 13:38:17;;;;;;;;;17.00;9.00;;;;;;;;5040964;28;51138;-54
2022/04/04 13:41:03;;;;;;;;;10.25;7.50;;;;;;;;5051363;27;51306;-56
2022/04/04 13:43:59;;;;;;;;;11.50;7.75;;;;;;;;5066487;27;51327;-53
2022/04/04 13:46:45;;;;;;;;;19.00;10.75;;;;;;;;5053903;27;51064;-56
2022/04/04 13:49:33;;;;;;;;;13.25;9.00;;;;;;;;5041809;28;51099;-56
2022/04/04 13:52:19;;;;;;;;;6.50;4.25;;;;;;;;5037899;28;51047;-56
2022/04/04 13:55:05;;;;;;;;;13.00;8.25;;;;;;;;5045853;28;51081;-54
2022/04/04 13:57:53;;;;;;;;;9.25;5.25;;;;;;;;5039686;28;51151;-54
2022/04/04 14:00:40;;;;;;;;;14.75;9.00;;;;;;;;5061163;27;51194;-54
2022/04/04 14:03:34;;;;;;;;;14.25;7.25;;;;;;;;5073264;27;51139;-56
2022/04/04 14:06:19;;;;;;;;;8.75;7.75;;;;;;;;5079805;27;51217;-57
2022/04/04 14:09:17;;;;;;;;;14.00;10.25;;;;;;;;5079353;27;51137;-52
2022/04/04 14:12:05;;;;;;;;;13.00;7.50;;;;;;;;5038915;28;51171;-51
2022/04/04 14:14:50;;;;;;;;;12.50;7.75;;;;;;;;5039927;28;51111;-52
2022/04/04 14:17:44;;;;;;;;;12.75;7.75;;;;;;;;5062304;27;51115;-52
2022/04/04 14:20:49;;;;;;;;;9.75;6.25;;;;;;;;5078470;27;51214;-56
2022/04/04 14:23:40;;;;;;;;;17.00;11.25;;;;;;;;5040052;28;51174;-51
2022/04/04 14:26:35;;;;;;;;;14.00;8.25;;;;;;;;5068932;27;51021;-53
2022/04/04 14:29:19;;;;;;;;;11.25;7.25;;;;;;;;5079494;27;51134;-52
2022/04/04 14:32:09;;;;;;;;;10.50;8.50;;;;;;;;5067041;27;51182;-56
2022/04/04 14:34:55;;;;;;;;;10.50;8.50;;;;;;;;5074803;27;51407;-56
2022/04/04 14:37:40;;;;;;;;;13.00;6.25;;;;;;;;5077856;27;51144;-57
2022/04/04 14:40:26;;;;;;;;;11.50;9.25;;;;;;;;5066613;27;51047;-53
2022/04/04 14:43:23;;;;;;;;;18.75;9.50;;;;;;;;5043686;28;51221;-50
2022/04/04 14:46:07;;;;;;;;;19.75;11.50;;;;;;;;5040249;28;51596;-56
2022/04/04 14:49:02;;;;;;;;;17.75;13.25;;;;;;;;5060298;27;51194;-56
2022/04/04 14:51:48;;;;;;;;;20.00;14.25;;;;;;;;5064930;27;51072;-50
2022/04/04 14:54:35;;;;;;;;;18.75;14.75;;;;;;;;5064342;27;51524;-51
2022/04/04 14:57:22;;;;;;;;;13.50;10.00;;;;;;;;5079810;27;51213;-54
2022/04/04 15:00:06;;;;;;;;;14.75;13.25;;;;;;;;5072271;27;51120;-52
2022/04/04 15:02:53;;;;;;;;;13.75;9.25;;;;;;;;5079931;27;51134;-52
2022/04/04 15:05:47;;;;;;;;;12.25;8.25;;;;;;;;5079442;27;51071;-53
2022/04/04 15:08:33;;;;;;;;;16.50;8.50;;;;;;;;5077170;27;51110;-57
2022/04/04 15:11:17;;;;;;;;;19.75;11.50;;;;;;;;5034257;28;51165;-55
2022/04/04 15:14:08;;;;;;;;;15.25;12.25;;;;;;;;5041958;28;51257;-49
2022/04/04 15:16:53;;;;;;;;;11.50;10.00;;;;;;;;5050709;27;51198;-50
2022/04/04 15:19:43;;;;;;;;;18.75;13.00;;;;;;;;5064395;27;51102;-51
2022/04/04 15:22:32;;;;;;;;;28.25;20.50;;;;;;;;5045732;28;51177;-52
2022/04/04 15:25:22;;;;;;;;;15.75;9.75;;;;;;;;5044201;28;51031;-53
2022/04/04 15:28:06;;;;;;;;;17.50;11.75;;;;;;;;5053824;27;51188;-52
2022/04/04 15:30:58;;;;;;;;;15.00;8.00;;;;;;;;5051848;27;51339;-53
2022/04/04 15:34:01;;;;;;;;;14.00;9.00;;;;;;;;5061602;27;51103;-49
2022/04/04 15:36:56;;;;;;;;;14.25;10.75;;;;;;;;5063089;27;51581;-53
2022/04/04 15:39:41;;;;;;;;;9.75;7.75;;;;;;;;5068430;28;51131;-53
2022/04/04 15:42:26;;;;;;;;;14.50;10.00;;;;;;;;5046686;27;51087;-53
2022/04/04 15:45:10;;;;;;;;;15.25;11.25;;;;;;;;5068586;28;51023;-51
2022/04/04 15:47:58;;;;;;;;;10.50;5.50;;;;;;;;5061981;28;51163;-52
2022/04/04 15:50:42;;;;;;;;;12.00;8.25;;;;;;;;5069813;28;51103;-50
2022/04/04 15:53:31;;;;;;;;;14.00;8.00;;;;;;;;5067168;28;51155;-58
2022/04/04 15:56:15;;;;;;;;;13.25;10.75;;;;;;;;5063994;28;51253;-53
2022/04/04 15:59:04;;;;;;;;;16.25;11.00;;;;;;;;5066505;28;51148;-53
2022/04/04 16:02:09;;;;;;;;;16.50;10.50;;;;;;;;5069892;28;51150;-50
2022/04/04 16:04:57;;;;;;;;;13.50;12.00;;;;;;;;5066268;28;51941;-56
2022/04/04 16:07:42;;;;;;;;;10.50;8.50;;;;;;;;5064116;28;51225;-57
2022/04/04 16:10:28;;;;;;;;;12.75;10.50;;;;;;;;5065737;28;51357;-55
2022/04/04 16:13:25;;;;;;;;;13.75;9.50;;;;;;;;5066309;28;51257;-54
2022/04/04 16:16:13;;;;;;;;;22.00;11.75;;;;;;;;5062475;28;51463;-56
2022/04/04 16:19:05;;;;;;;;;14.00;9.00;;;;;;;;5052695;28;51523;-54
2022/04/04 16:21:51;;;;;;;;;16.00;10.00;;;;;;;;5067077;28;51179;-55
2022/04/04 16:24:36;;;;;;;;;13.50;7.25;;;;;;;;5059994;28;51205;-52
2022/04/04 16:27:22;;;;;;;;;19.25;14.00;;;;;;;;5069281;28;51157;-53
2022/04/04 16:30:07;;;;;;;;;20.25;15.75;;;;;;;;5053650;28;51049;-53
2022/04/04 16:32:53;;;;;;;;;21.00;12.50;;;;;;;;5061890;28;51135;-50
2022/04/04 16:35:38;;;;;;;;;14.75;12.00;;;;;;;;5064002;28;51578;-47
2022/04/04 16:38:24;;;;;;;;;9.00;8.00;;;;;;;;5065296;28;51149;-51